createdAt,value
2023-04-06T00:01:40.842Z,35.07
2023-04-06T00:04:09.594Z,35.24
2023-04-06T00:06:38.096Z,35.21
2023-04-06T00:09:09.713Z,35.28
2023-04-06T00:11:39.634Z,35.55
2023-04-06T00:14:09.142Z,35.67
2023-04-06T00:16:37.592Z,35.58
2023-04-06T00:19:10.845Z,35.71
2023-04-06T00:21:39.566Z,35.73
2023-04-06T00:24:08.368Z,35.63
2023-04-06T00:26:38.149Z,35.78
2023-04-06T00:29:09.661Z,36.00
2023-04-06T00:31:38.219Z,35.75
2023-04-06T00:34:07.463Z,36.11
2023-04-06T00:36:38.689Z,35.86
2023-04-06T00:39:10.309Z,35.95
2023-04-06T00:41:41.562Z,36.02
2023-04-06T00:44:10.014Z,36.18
2023-04-06T00:46:38.380Z,36.17
2023-04-06T00:49:07.088Z,35.89
2023-04-06T00:51:35.708Z,36.16
2023-04-06T00:54:04.205Z,36.31
2023-04-06T00:56:32.979Z,36.22
2023-04-06T00:59:02.978Z,36.41
2023-04-06T01:01:33.468Z,36.13
2023-04-06T01:04:07.513Z,36.35
2023-04-06T01:06:35.939Z,36.14
2023-04-06T01:09:04.547Z,36.42
2023-04-06T01:11:33.367Z,36.17
2023-04-06T01:14:03.152Z,36.49
2023-04-06T01:16:31.678Z,36.58
2023-04-06T01:19:01.719Z,36.58
2023-04-06T01:21:30.162Z,36.43
2023-04-06T01:23:59.970Z,36.73
2023-04-06T01:26:30.314Z,36.75
2023-04-06T01:29:01.687Z,36.62
2023-04-06T01:31:30.510Z,36.82
2023-04-06T01:34:01.900Z,36.74
2023-04-06T01:36:30.705Z,37.00
2023-04-06T01:39:00.806Z,36.79
2023-04-06T01:41:29.281Z,36.84
2023-04-06T01:43:57.695Z,37.17
2023-04-06T01:46:26.191Z,36.92
2023-04-06T01:48:54.619Z,36.96
2023-04-06T01:51:23.019Z,36.77
2023-04-06T01:53:51.436Z,37.11
2023-04-06T01:56:21.341Z,37.13
2023-04-06T01:58:49.804Z,37.18
2023-04-06T02:01:18.303Z,37.25
2023-04-06T02:03:46.841Z,37.21
2023-04-06T02:06:15.365Z,37.52
2023-04-06T02:08:46.421Z,37.42
2023-04-06T02:11:17.746Z,37.62
2023-04-06T02:13:47.540Z,37.81
2023-04-06T02:16:16.908Z,37.75
2023-04-06T02:18:45.480Z,37.85
2023-04-06T02:21:13.891Z,37.91
2023-04-06T02:23:42.284Z,37.95
2023-04-06T02:26:10.719Z,37.93
2023-04-06T02:28:39.160Z,38.09
2023-04-06T02:31:08.999Z,38.01
2023-04-06T02:33:37.394Z,37.90
2023-04-06T02:36:06.482Z,38.17
2023-04-06T02:38:35.017Z,38.31
2023-04-06T02:41:03.435Z,38.21
2023-04-06T02:43:34.644Z,38.13
2023-04-06T02:46:05.358Z,38.29
2023-04-06T02:48:37.234Z,38.12
2023-04-06T02:51:06.244Z,38.20
2023-04-06T02:53:34.757Z,38.25
2023-04-06T02:56:05.819Z,38.28
2023-04-06T02:58:37.920Z,38.22
2023-04-06T03:01:06.692Z,38.18
2023-04-06T03:03:36.659Z,38.11
2023-04-06T03:06:08.420Z,38.29
2023-04-06T03:08:36.896Z,38.25
2023-04-06T03:11:05.547Z,38.46
2023-04-06T03:13:34.011Z,38.69
2023-04-06T03:16:02.611Z,38.65
2023-04-06T03:18:31.062Z,38.67
2023-04-06T03:21:01.378Z,38.61
2023-04-06T03:23:29.843Z,38.63
2023-04-06T03:26:01.349Z,38.58
2023-04-06T03:28:29.826Z,38.52
2023-04-06T03:30:58.293Z,38.53
2023-04-06T03:33:28.030Z,38.61
2023-04-06T03:35:56.684Z,38.80
2023-04-06T03:38:26.515Z,38.74
2023-04-06T03:40:54.917Z,38.60
2023-04-06T03:43:23.349Z,38.67
2023-04-06T03:45:51.994Z,38.41
2023-04-06T03:48:20.398Z,38.97
2023-04-06T03:50:48.774Z,38.72
2023-04-06T03:53:17.245Z,38.96
2023-04-06T03:55:47.026Z,38.82
2023-04-06T03:58:15.685Z,38.95
2023-04-06T04:00:44.077Z,38.85
2023-04-06T04:03:14.724Z,38.82
2023-04-06T04:05:43.260Z,38.85
2023-04-06T04:08:11.770Z,39.06
2023-04-06T04:10:40.318Z,39.03
2023-04-06T04:13:10.302Z,39.03
2023-04-06T04:15:38.704Z,38.90
2023-04-06T04:18:07.169Z,39.06
2023-04-06T04:20:35.733Z,39.09
2023-04-06T04:23:04.114Z,38.98
2023-04-06T04:25:32.521Z,39.06
2023-04-06T04:28:00.936Z,39.11
2023-04-06T04:30:30.815Z,39.36
2023-04-06T04:32:59.495Z,39.19
2023-04-06T04:35:29.161Z,39.15
2023-04-06T04:37:57.605Z,39.13
2023-04-06T04:40:26.130Z,39.42
2023-04-06T04:42:54.606Z,39.46
2023-04-06T04:45:23.087Z,39.55
2023-04-06T04:47:52.990Z,39.58
2023-04-06T04:50:21.420Z,39.53
2023-04-06T04:52:49.870Z,39.61
2023-04-06T04:55:18.610Z,39.70
2023-04-06T04:57:47.062Z,39.81
2023-04-06T05:00:16.757Z,39.62
2023-04-06T05:02:45.254Z,39.78
2023-04-06T05:05:15.124Z,39.90
2023-04-06T05:07:43.637Z,39.76
2023-04-06T05:10:12.642Z,39.79
2023-04-06T05:12:41.326Z,40.05
2023-04-06T05:15:11.340Z,39.92
2023-04-06T05:17:39.944Z,40.03
2023-04-06T05:20:09.695Z,40.04
2023-04-06T05:22:39.779Z,40.10
2023-04-06T05:25:09.440Z,40.18
2023-04-06T05:27:37.919Z,40.39
2023-04-06T05:30:08.248Z,40.27
2023-04-06T05:32:37.095Z,40.15
2023-04-06T05:35:06.249Z,40.29
2023-04-06T05:37:34.677Z,40.24
2023-04-06T05:40:05.552Z,40.50
2023-04-06T05:42:39.382Z,40.38
2023-04-06T05:45:09.420Z,40.28
2023-04-06T05:47:37.971Z,40.53
2023-04-06T05:50:10.687Z,40.46
2023-04-06T05:52:39.115Z,40.63
2023-04-06T05:55:10.748Z,40.56
2023-04-06T05:57:39.219Z,40.62
2023-04-06T06:00:10.870Z,40.75
2023-04-06T06:02:40.637Z,40.67
2023-04-06T06:05:10.731Z,40.76
2023-04-06T06:07:39.418Z,40.90
2023-04-06T06:10:11.414Z,40.90
2023-04-06T06:12:39.853Z,41.09
2023-04-06T06:15:09.972Z,41.19
2023-04-06T06:17:39.202Z,41.01
2023-04-06T06:20:09.749Z,41.12
2023-04-06T06:22:38.324Z,41.28
2023-04-06T06:25:08.639Z,41.42
2023-04-06T06:27:37.589Z,41.30
2023-04-06T06:30:07.620Z,41.67
2023-04-06T06:32:36.156Z,41.65
2023-04-06T06:35:04.893Z,41.66
2023-04-06T06:37:33.295Z,41.52
2023-04-06T06:40:01.811Z,41.75
2023-04-06T06:42:31.607Z,41.58
2023-04-06T06:45:05.284Z,41.71
2023-04-06T06:47:33.790Z,41.74
2023-04-06T06:50:03.869Z,41.35
2023-04-06T06:52:32.354Z,41.23
2023-04-06T06:55:01.252Z,41.40
2023-04-06T06:57:31.112Z,41.46
2023-04-06T07:00:00.997Z,41.44
2023-04-06T07:02:29.495Z,41.74
2023-04-06T07:04:58.035Z,41.33
2023-04-06T07:07:26.455Z,41.30
2023-04-06T07:09:54.897Z,41.48
2023-04-06T07:12:23.391Z,41.21
2023-04-06T07:14:53.218Z,41.11
2023-04-06T07:17:21.695Z,40.98
2023-04-06T07:19:50.161Z,41.12
2023-04-06T07:22:18.652Z,40.94
2023-04-06T07:24:47.105Z,40.63
2023-04-06T07:27:17.382Z,40.75
2023-04-06T07:29:45.899Z,40.52
2023-04-06T07:32:15.915Z,40.36
2023-04-06T07:34:46.123Z,40.04
2023-04-06T07:37:14.626Z,40.52
2023-04-06T07:39:43.322Z,40.07
2023-04-06T07:42:12.400Z,39.85
2023-04-06T07:44:40.936Z,39.43
2023-04-06T07:47:09.376Z,39.25
2023-04-06T07:49:39.219Z,39.21
2023-04-06T07:52:07.724Z,38.65
2023-04-06T07:54:36.249Z,38.60
2023-04-06T07:57:04.731Z,38.12
2023-04-06T07:59:33.247Z,38.33
2023-04-06T08:02:01.914Z,38.40
2023-04-06T08:04:30.677Z,37.77
2023-04-06T08:07:00.739Z,37.29
2023-04-06T08:09:29.172Z,37.55
2023-04-06T08:11:57.580Z,37.19
2023-04-06T08:14:26.083Z,36.71
2023-04-06T08:16:54.491Z,36.54
2023-04-06T08:19:23.131Z,36.36
2023-04-06T08:21:52.386Z,36.20
2023-04-06T08:24:22.281Z,35.77
2023-04-06T08:26:51.676Z,35.23
2023-04-06T08:29:20.358Z,35.07
2023-04-06T08:31:48.810Z,34.91
2023-04-06T08:34:17.437Z,34.47
2023-04-06T08:36:46.577Z,34.38
2023-04-06T08:39:15.085Z,34.04
2023-04-06T08:41:46.013Z,33.36
2023-04-06T08:44:14.706Z,33.07
2023-04-06T08:46:43.221Z,33.12
2023-04-06T08:49:11.750Z,33.35
2023-04-06T08:51:40.461Z,32.93
2023-04-06T08:54:09.065Z,32.33
2023-04-06T08:56:41.297Z,32.51
2023-04-06T08:59:12.641Z,31.88
2023-04-06T09:01:46.934Z,31.26
2023-04-06T09:04:16.059Z,30.34
2023-04-06T09:06:45.874Z,29.84
2023-04-06T09:09:14.436Z,29.79
2023-04-06T09:11:51.154Z,29.41
2023-04-06T09:14:37.566Z,29.80
2023-04-06T09:17:07.233Z,29.60
2023-04-06T09:19:35.751Z,29.01
2023-04-06T09:22:06.038Z,28.73
2023-04-06T09:24:46.114Z,28.42
2023-04-06T09:27:15.192Z,27.69
2023-04-06T09:29:45.847Z,26.57
2023-04-06T09:32:17.872Z,26.22
2023-04-06T09:34:50.831Z,26.51
2023-04-06T09:37:21.573Z,26.07
2023-04-06T09:39:52.581Z,25.82
2023-04-06T09:42:27.599Z,25.50
2023-04-06T09:44:57.446Z,25.34
2023-04-06T09:47:29.271Z,25.46
2023-04-06T09:50:00.212Z,25.35
2023-04-06T09:52:34.282Z,25.44
2023-04-06T09:55:06.376Z,25.46
2023-04-06T09:57:40.241Z,24.89
2023-04-06T10:00:13.173Z,24.95
2023-04-06T10:02:52.881Z,25.46
2023-04-06T10:05:32.698Z,25.05
2023-04-06T10:08:08.469Z,24.53
2023-04-06T10:10:37.186Z,24.43
2023-04-06T10:13:07.303Z,24.64
2023-04-06T10:15:37.132Z,24.96
2023-04-06T10:18:08.544Z,24.37
2023-04-06T10:20:45.929Z,24.50
2023-04-06T10:23:22.115Z,24.25
2023-04-06T10:25:58.372Z,23.96
2023-04-06T10:28:28.373Z,24.27
2023-04-06T10:31:02.576Z,24.34
2023-04-06T10:33:31.505Z,24.48
2023-04-06T10:36:00.520Z,24.13
2023-04-06T10:38:41.776Z,24.08
2023-04-06T10:41:13.140Z,23.29
2023-04-06T10:43:43.591Z,23.72
2023-04-06T10:46:13.805Z,23.21
2023-04-06T10:48:44.854Z,23.02
2023-04-06T10:51:15.350Z,22.81
2023-04-06T10:53:45.508Z,23.09
2023-04-06T10:56:16.294Z,23.42
2023-04-06T10:58:48.677Z,22.26
2023-04-06T11:01:24.366Z,22.40
2023-04-06T11:03:54.871Z,22.42
2023-04-06T11:06:24.854Z,22.16
2023-04-06T11:08:54.334Z,22.30
2023-04-06T11:11:26.855Z,21.19
2023-04-06T11:13:57.536Z,21.53
2023-04-06T11:16:30.451Z,22.79
2023-04-06T11:19:00.750Z,22.26
2023-04-06T11:21:37.826Z,22.67
2023-04-06T11:24:10.840Z,22.98
2023-04-06T11:26:46.224Z,22.53
2023-04-06T11:29:15.920Z,22.24
2023-04-06T11:31:48.669Z,21.77
2023-04-06T11:34:20.103Z,21.89
2023-04-06T11:36:53.009Z,21.80
2023-04-06T11:39:24.784Z,22.12
2023-04-06T11:41:59.656Z,22.23
2023-04-06T11:44:36.586Z,22.21
2023-04-06T11:47:08.469Z,21.29
2023-04-06T11:49:40.733Z,21.34
2023-04-06T11:52:18.934Z,21.29
2023-04-06T11:54:48.374Z,21.83
2023-04-06T11:57:17.610Z,20.68
2023-04-06T11:59:46.337Z,20.70
2023-04-06T12:02:16.340Z,20.92
2023-04-06T12:04:44.914Z,20.87
2023-04-06T12:07:13.471Z,20.51
2023-04-06T12:09:41.953Z,20.51
2023-04-06T12:12:10.513Z,21.19
2023-04-06T12:14:38.984Z,20.65
2023-04-06T12:17:07.455Z,21.00
2023-04-06T12:19:37.281Z,20.48
2023-04-06T12:22:06.294Z,20.50
2023-04-06T12:24:34.830Z,20.88
2023-04-06T12:27:10.155Z,20.89
2023-04-06T12:29:39.466Z,20.39
2023-04-06T12:32:07.968Z,20.38
2023-04-06T12:34:37.840Z,20.58
2023-04-06T12:37:09.060Z,20.18
2023-04-06T12:39:37.530Z,20.28
2023-04-06T12:42:06.084Z,20.22
2023-04-06T12:44:34.653Z,19.54
2023-04-06T12:47:03.530Z,19.54
2023-04-06T12:49:32.769Z,19.46
2023-04-06T12:52:03.017Z,19.14
2023-04-06T12:54:31.499Z,19.84
2023-04-06T12:56:59.940Z,20.21
2023-04-06T12:59:29.175Z,20.03
2023-04-06T13:01:57.734Z,20.08
2023-04-06T13:04:27.367Z,20.71
2023-04-06T13:06:55.871Z,20.29
2023-04-06T13:09:25.854Z,20.12
2023-04-06T13:11:54.363Z,20.56
2023-04-06T13:14:22.883Z,20.93
2023-04-06T13:16:53.639Z,20.98
2023-04-06T13:19:22.715Z,21.09
2023-04-06T13:21:51.307Z,20.29
2023-04-06T13:24:20.560Z,20.25
2023-04-06T13:26:50.511Z,19.91
2023-04-06T13:29:19.029Z,20.53
2023-04-06T13:31:47.659Z,20.32
2023-04-06T13:34:16.352Z,20.65
2023-04-06T13:36:44.834Z,20.37
2023-04-06T13:39:13.352Z,19.91
2023-04-06T13:41:41.988Z,20.66
2023-04-06T13:44:11.943Z,20.00
2023-04-06T13:46:40.866Z,19.15
2023-04-06T13:49:09.437Z,18.64
2023-04-06T13:51:37.936Z,19.35
2023-04-06T13:54:07.003Z,19.38
2023-04-06T13:56:35.392Z,19.50
2023-04-06T13:59:05.595Z,19.29
2023-04-06T14:01:35.541Z,19.29
2023-04-06T14:04:04.125Z,19.90
2023-04-06T14:06:33.885Z,20.45
2023-04-06T14:09:02.366Z,19.82
2023-04-06T14:11:31.250Z,19.84
2023-04-06T14:13:59.647Z,19.62
2023-04-06T14:16:28.191Z,20.02
2023-04-06T14:18:58.964Z,20.04
2023-04-06T14:21:33.133Z,19.83
2023-04-06T14:24:02.793Z,19.72
2023-04-06T14:26:31.297Z,20.06
2023-04-06T14:29:01.082Z,19.53
2023-04-06T14:31:31.152Z,19.66
2023-04-06T14:34:03.422Z,19.53
2023-04-06T14:36:37.323Z,19.73
2023-04-06T14:39:06.875Z,20.37
2023-04-06T14:41:36.534Z,20.39
2023-04-06T14:44:05.970Z,20.27
2023-04-06T14:46:34.769Z,20.43
2023-04-06T14:49:04.716Z,20.75
2023-04-06T14:51:36.681Z,20.45
2023-04-06T14:54:05.667Z,19.75
2023-04-06T14:56:34.402Z,19.66
2023-04-06T14:59:04.256Z,19.60
2023-04-06T15:01:36.551Z,19.75
2023-04-06T15:04:07.838Z,19.58
2023-04-06T15:06:36.290Z,19.67
2023-04-06T15:09:04.843Z,20.06
2023-04-06T15:11:33.362Z,19.93
2023-04-06T15:14:03.297Z,19.83
2023-04-06T15:16:33.452Z,19.82
2023-04-06T15:19:02.442Z,19.71
2023-04-06T15:21:33.329Z,19.73
2023-04-06T15:24:01.698Z,20.25
2023-04-06T15:26:30.074Z,19.85
2023-04-06T15:28:58.565Z,19.95
2023-04-06T15:31:37.561Z,20.06
2023-04-06T15:34:09.040Z,19.86
2023-04-06T15:36:39.346Z,19.45
2023-04-06T15:39:09.968Z,19.19
2023-04-06T15:41:38.781Z,20.02
2023-04-06T15:44:07.354Z,19.85
2023-04-06T15:46:35.832Z,19.54
2023-04-06T15:49:04.570Z,20.04
2023-04-06T15:51:33.584Z,19.96
2023-04-06T15:54:03.522Z,19.75
2023-04-06T15:56:33.554Z,19.55
2023-04-06T15:59:03.968Z,19.71
2023-04-06T16:01:37.150Z,20.33
2023-04-06T16:04:11.348Z,19.95
2023-04-06T16:06:40.250Z,19.67
2023-04-06T16:09:10.034Z,19.99
2023-04-06T16:11:38.579Z,19.94
2023-04-06T16:14:07.202Z,19.93
2023-04-06T16:16:35.834Z,20.06
2023-04-06T16:19:04.319Z,20.15
2023-04-06T16:21:38.002Z,20.33
2023-04-06T16:24:06.989Z,20.28
2023-04-06T16:26:37.074Z,20.10
2023-04-06T16:29:05.636Z,20.51
2023-04-06T16:31:37.205Z,20.73
2023-04-06T16:34:05.747Z,21.00
2023-04-06T16:36:34.283Z,20.58
2023-04-06T16:39:03.524Z,20.46
2023-04-06T16:41:38.108Z,21.01
2023-04-06T16:44:06.763Z,20.83
2023-04-06T16:46:38.302Z,20.89
2023-04-06T16:49:07.368Z,21.06
2023-04-06T16:51:38.166Z,21.33
2023-04-06T16:54:06.851Z,21.84
2023-04-06T16:56:35.402Z,22.27
2023-04-06T16:59:08.175Z,22.29
2023-04-06T17:01:36.976Z,22.41
2023-04-06T17:04:05.706Z,22.48
2023-04-06T17:06:36.252Z,22.53
2023-04-06T17:09:04.923Z,22.55
2023-04-06T17:11:43.604Z,22.70
2023-04-06T17:14:16.210Z,22.99
2023-04-06T17:16:44.682Z,23.27
2023-04-06T17:19:13.157Z,23.26
2023-04-06T17:21:44.996Z,23.20
2023-04-06T17:24:13.389Z,23.05
2023-04-06T17:26:41.745Z,23.43
2023-04-06T17:29:10.182Z,23.47
2023-04-06T17:31:39.922Z,23.55
2023-04-06T17:34:08.313Z,23.86
2023-04-06T17:36:39.490Z,24.02
2023-04-06T17:39:08.330Z,23.97
2023-04-06T17:41:36.852Z,23.99
2023-04-06T17:44:05.557Z,24.07
2023-04-06T17:46:36.828Z,24.08
2023-04-06T17:49:08.462Z,23.79
2023-04-06T17:51:45.134Z,23.87
2023-04-06T17:54:13.720Z,23.47
2023-04-06T17:56:42.344Z,23.66
2023-04-06T17:59:11.627Z,23.65
2023-04-06T18:01:43.274Z,23.65
2023-04-06T18:04:13.180Z,23.63
2023-04-06T18:06:46.267Z,23.59
2023-04-06T18:09:15.017Z,23.52
2023-04-06T18:11:43.622Z,23.63
2023-04-06T18:14:13.533Z,23.71
2023-04-06T18:16:42.632Z,24.05
2023-04-06T18:19:12.400Z,24.30
2023-04-06T18:21:40.840Z,24.48
2023-04-06T18:24:12.313Z,24.93
2023-04-06T18:26:43.584Z,25.02
2023-04-06T18:29:11.938Z,25.28
2023-04-06T18:31:40.494Z,25.54
2023-04-06T18:34:08.852Z,25.67
2023-04-06T18:36:38.798Z,25.90
2023-04-06T18:39:07.194Z,26.11
2023-04-06T18:41:36.463Z,26.38
2023-04-06T18:44:05.136Z,26.26
2023-04-06T18:46:36.537Z,26.82
2023-04-06T18:49:05.530Z,26.89
2023-04-06T18:51:37.885Z,26.92
2023-04-06T18:54:07.721Z,27.00
2023-04-06T18:56:37.039Z,27.00
2023-04-06T18:59:05.697Z,27.06
2023-04-06T19:01:41.153Z,27.38
2023-04-06T19:04:11.344Z,27.36
2023-04-06T19:06:39.921Z,27.40
2023-04-06T19:09:09.811Z,27.58
2023-04-06T19:11:38.510Z,27.66
2023-04-06T19:14:07.102Z,28.00
2023-04-06T19:16:40.983Z,27.91
2023-04-06T19:19:09.790Z,28.07
2023-04-06T19:21:44.085Z,28.02
2023-04-06T19:24:14.054Z,28.33
2023-04-06T19:26:43.521Z,28.31
2023-04-06T19:29:12.344Z,28.38
2023-04-06T19:31:40.817Z,28.42
2023-04-06T19:34:09.424Z,28.44
2023-04-06T19:36:40.579Z,28.66
2023-04-06T19:39:08.874Z,28.60
2023-04-06T19:41:40.593Z,28.99
2023-04-06T19:44:08.943Z,28.93
2023-04-06T19:46:43.324Z,28.86
2023-04-06T19:49:11.700Z,29.03
2023-04-06T19:51:43.161Z,29.09
2023-04-06T19:54:11.539Z,29.08
2023-04-06T19:56:41.372Z,29.22
2023-04-06T19:59:11.069Z,29.17
2023-04-06T20:01:39.667Z,29.26
2023-04-06T20:04:08.382Z,29.20
2023-04-06T20:06:36.869Z,29.26
2023-04-06T20:09:05.462Z,29.91
2023-04-06T20:11:37.822Z,29.67
2023-04-06T20:14:07.588Z,29.66
2023-04-06T20:16:41.843Z,29.76
2023-04-06T20:19:10.320Z,29.74
2023-04-06T20:21:41.121Z,29.90
2023-04-06T20:24:10.909Z,29.94
2023-04-06T20:26:39.288Z,30.08
2023-04-06T20:29:09.095Z,30.14
2023-04-06T20:31:37.472Z,30.22
2023-04-06T20:34:06.293Z,30.29
2023-04-06T20:36:38.281Z,30.21
2023-04-06T20:39:07.066Z,30.50
2023-04-06T20:41:35.528Z,30.39
2023-04-06T20:44:05.089Z,30.48
2023-04-06T20:46:36.181Z,30.72
2023-04-06T20:49:05.018Z,30.79
2023-04-06T20:51:33.437Z,30.78
2023-04-06T20:54:02.136Z,30.80
2023-04-06T20:56:35.957Z,30.95
2023-04-06T20:59:05.190Z,30.96
2023-04-06T21:01:36.296Z,31.10
2023-04-06T21:04:04.860Z,31.17
2023-04-06T21:06:38.241Z,31.49
2023-04-06T21:09:06.664Z,31.46
2023-04-06T21:11:35.043Z,31.61
2023-04-06T21:14:03.407Z,31.58
2023-04-06T21:16:42.089Z,31.79
2023-04-06T21:19:10.419Z,31.64
2023-04-06T21:21:38.757Z,32.08
2023-04-06T21:24:07.778Z,31.75
2023-04-06T21:26:37.039Z,31.90
2023-04-06T21:29:05.621Z,32.01
2023-04-06T21:31:41.003Z,32.26
2023-04-06T21:34:13.173Z,31.96
2023-04-06T21:36:42.717Z,32.40
2023-04-06T21:39:11.589Z,32.43
2023-04-06T21:41:40.755Z,32.53
2023-04-06T21:44:09.098Z,32.41
2023-04-06T21:46:38.881Z,32.60
2023-04-06T21:49:07.278Z,32.65
2023-04-06T21:51:37.942Z,32.75
2023-04-06T21:54:06.566Z,32.62
2023-04-06T21:56:34.911Z,32.70
2023-04-06T21:59:03.238Z,32.62
2023-04-06T22:01:34.649Z,32.89
2023-04-06T22:04:04.426Z,32.59
2023-04-06T22:06:32.848Z,32.97
2023-04-06T22:09:02.001Z,33.16
2023-04-06T22:11:36.123Z,32.97
2023-04-06T22:14:06.160Z,33.22
2023-04-06T22:16:34.637Z,32.99
2023-04-06T22:19:04.491Z,33.33
2023-04-06T22:21:32.886Z,33.36
2023-04-06T22:24:01.307Z,33.42
2023-04-06T22:26:29.773Z,33.58
2023-04-06T22:28:58.511Z,33.50
2023-04-06T22:31:27.263Z,33.65
2023-04-06T22:33:55.746Z,33.64
2023-04-06T22:36:26.806Z,33.58
2023-04-06T22:38:55.081Z,33.77
2023-04-06T22:41:26.703Z,33.89
2023-04-06T22:43:55.132Z,33.66
2023-04-06T22:46:23.608Z,33.74
2023-04-06T22:48:51.949Z,33.78
2023-04-06T22:51:20.699Z,33.80
2023-04-06T22:53:50.442Z,33.71
2023-04-06T22:56:18.754Z,33.96
2023-04-06T22:58:47.316Z,34.28
2023-04-06T23:01:15.699Z,34.36
2023-04-06T23:03:52.402Z,34.37
2023-04-06T23:06:22.007Z,34.02
2023-04-06T23:08:51.752Z,34.43
2023-04-06T23:11:20.015Z,34.50
2023-04-06T23:13:48.337Z,34.30
2023-04-06T23:16:16.701Z,34.74
2023-04-06T23:18:45.520Z,34.62
2023-04-06T23:21:17.027Z,34.84
2023-04-06T23:23:45.350Z,34.64
2023-04-06T23:26:15.010Z,34.98
2023-04-06T23:28:43.553Z,34.74
2023-04-06T23:31:11.837Z,34.67
2023-04-06T23:33:40.091Z,34.87
2023-04-06T23:36:08.781Z,35.08
2023-04-06T23:38:37.400Z,34.79
2023-04-06T23:41:06.398Z,35.06
2023-04-06T23:43:36.094Z,35.42
2023-04-06T23:46:04.525Z,35.45
2023-04-06T23:48:35.886Z,35.08
2023-04-06T23:51:04.271Z,35.13
2023-04-06T23:53:32.831Z,35.25
2023-04-06T23:56:01.325Z,35.18
2023-04-06T23:58:29.731Z,35.67
